sensor_id;sensor_type;location;lat;lon;timestamp;temperature;humidity
1083;DHT22;530;51.448;7.238;2023-02-15T00:01:30;7.60;99.90
1083;DHT22;530;51.448;7.238;2023-02-15T00:03:56;7.60;99.90
1083;DHT22;530;51.448;7.238;2023-02-15T00:06:22;7.50;99.90
1083;DHT22;530;51.448;7.238;2023-02-15T00:08:47;7.50;99.90
1083;DHT22;530;51.448;7.238;2023-02-15T00:11:15;7.20;99.90
1083;DHT22;530;51.448;7.238;2023-02-15T00:13:42;7.40;99.90
1083;DHT22;530;51.448;7.238;2023-02-15T00:16:12;7.40;99.90
1083;DHT22;530;51.448;7.238;2023-02-15T00:18:39;7.40;99.90
1083;DHT22;530;51.448;7.238;2023-02-15T00:21:07;7.30;99.90
1083;DHT22;530;51.448;7.238;2023-02-15T00:23:33;7.40;99.90
1083;DHT22;530;51.448;7.238;2023-02-15T00:26:11;7.30;99.90
1083;DHT22;530;51.448;7.238;2023-02-15T00:28:38;7.50;99.90
1083;DHT22;530;51.448;7.238;2023-02-15T00:31:11;7.40;99.90
1083;DHT22;530;51.448;7.238;2023-02-15T00:33:38;7.50;99.90
1083;DHT22;530;51.448;7.238;2023-02-15T00:36:08;7.40;99.90
1083;DHT22;530;51.448;7.238;2023-02-15T00:38:34;7.00;99.90
1083;DHT22;530;51.448;7.238;2023-02-15T00:41:02;7.40;99.90
1083;DHT22;530;51.448;7.238;2023-02-15T00:43:29;7.20;99.90
1083;DHT22;530;51.448;7.238;2023-02-15T00:45:55;7.10;99.90
1083;DHT22;530;51.448;7.238;2023-02-15T00:48:21;7.00;99.90
1083;DHT22;530;51.448;7.238;2023-02-15T00:50:50;6.90;99.90
1083;DHT22;530;51.448;7.238;2023-02-15T00:53:16;7.00;99.90
1083;DHT22;530;51.448;7.238;2023-02-15T00:55:43;7.00;99.90
1083;DHT22;530;51.448;7.238;2023-02-15T00:58:10;6.80;99.90
1083;DHT22;530;51.448;7.238;2023-02-15T01:00:37;6.90;99.90
1083;DHT22;530;51.448;7.238;2023-02-15T01:03:04;6.80;99.90
1083;DHT22;530;51.448;7.238;2023-02-15T01:05:30;6.80;99.90
1083;DHT22;530;51.448;7.238;2023-02-15T01:07:57;6.90;99.90
1083;DHT22;530;51.448;7.238;2023-02-15T01:10:22;7.10;99.90
1083;DHT22;530;51.448;7.238;2023-02-15T01:12:50;6.90;99.90
1083;DHT22;530;51.448;7.238;2023-02-15T01:15:16;7.00;99.90
1083;DHT22;530;51.448;7.238;2023-02-15T01:17:42;6.90;99.90
1083;DHT22;530;51.448;7.238;2023-02-15T01:20:09;7.00;99.90
1083;DHT22;530;51.448;7.238;2023-02-15T01:22:35;6.90;99.90
1083;DHT22;530;51.448;7.238;2023-02-15T01:25:01;6.80;99.90
1083;DHT22;530;51.448;7.238;2023-02-15T01:27:26;6.60;99.90
1083;DHT22;530;51.448;7.238;2023-02-15T01:29:52;6.90;99.90
1083;DHT22;530;51.448;7.238;2023-02-15T01:32:17;7.00;99.90
1083;DHT22;530;51.448;7.238;2023-02-15T01:34:43;7.00;99.90
1083;DHT22;530;51.448;7.238;2023-02-15T01:37:09;6.80;99.90
1083;DHT22;530;51.448;7.238;2023-02-15T01:39:34;6.90;99.90
1083;DHT22;530;51.448;7.238;2023-02-15T01:42:00;6.80;99.90
1083;DHT22;530;51.448;7.238;2023-02-15T01:47:18;6.80;99.90
1083;DHT22;530;51.448;7.238;2023-02-15T01:49:46;6.70;99.90
1083;DHT22;530;51.448;7.238;2023-02-15T01:52:15;6.90;99.90
1083;DHT22;530;51.448;7.238;2023-02-15T01:54:44;6.90;99.90
1083;DHT22;530;51.448;7.238;2023-02-15T01:57:16;6.90;99.90
1083;DHT22;530;51.448;7.238;2023-02-15T01:59:46;7.00;99.90
1083;DHT22;530;51.448;7.238;2023-02-15T02:02:16;6.90;99.90
1083;DHT22;530;51.448;7.238;2023-02-15T02:04:51;6.70;99.90
1083;DHT22;530;51.448;7.238;2023-02-15T02:07:22;6.70;99.90
1083;DHT22;530;51.448;7.238;2023-02-15T02:09:49;6.50;99.90
1083;DHT22;530;51.448;7.238;2023-02-15T02:12:18;6.50;99.90
1083;DHT22;530;51.448;7.238;2023-02-15T02:14:45;6.80;99.90
1083;DHT22;530;51.448;7.238;2023-02-15T02:20:11;6.70;99.90
1083;DHT22;530;51.448;7.238;2023-02-15T02:41:32;6.60;99.90
1083;DHT22;530;51.448;7.238;2023-02-15T02:49:15;6.40;99.90
1083;DHT22;530;51.448;7.238;2023-02-15T02:51:41;6.40;99.90
1083;DHT22;530;51.448;7.238;2023-02-15T02:54:07;6.30;99.90
1083;DHT22;530;51.448;7.238;2023-02-15T02:56:39;6.40;99.90
1083;DHT22;530;51.448;7.238;2023-02-15T02:59:20;6.30;99.90
1083;DHT22;530;51.448;7.238;2023-02-15T03:01:57;6.40;99.90
1083;DHT22;530;51.448;7.238;2023-02-15T03:04:28;6.40;99.90
1083;DHT22;530;51.448;7.238;2023-02-15T03:07:03;6.40;99.90
1083;DHT22;530;51.448;7.238;2023-02-15T03:09:51;6.20;99.90
1083;DHT22;530;51.448;7.238;2023-02-15T03:12:24;6.30;99.90
1083;DHT22;530;51.448;7.238;2023-02-15T03:17:27;6.10;99.90
1083;DHT22;530;51.448;7.238;2023-02-15T03:19:58;6.20;99.90
1083;DHT22;530;51.448;7.238;2023-02-15T03:22:38;6.30;99.90
1083;DHT22;530;51.448;7.238;2023-02-15T03:25:42;6.10;99.90
1083;DHT22;530;51.448;7.238;2023-02-15T03:28:06;6.10;99.90
1083;DHT22;530;51.448;7.238;2023-02-15T03:30:34;6.20;99.90
1083;DHT22;530;51.448;7.238;2023-02-15T03:33:01;6.10;99.90
1083;DHT22;530;51.448;7.238;2023-02-15T03:35:36;6.10;99.90
1083;DHT22;530;51.448;7.238;2023-02-15T03:38:04;6.00;99.90
1083;DHT22;530;51.448;7.238;2023-02-15T03:40:37;6.10;99.90
1083;DHT22;530;51.448;7.238;2023-02-15T03:45:52;6.00;99.90
1083;DHT22;530;51.448;7.238;2023-02-15T03:48:45;6.00;99.90
1083;DHT22;530;51.448;7.238;2023-02-15T03:51:17;6.00;99.90
1083;DHT22;530;51.448;7.238;2023-02-15T03:54:12;6.10;99.90
1083;DHT22;530;51.448;7.238;2023-02-15T03:57:01;5.90;99.90
1083;DHT22;530;51.448;7.238;2023-02-15T03:59:45;5.70;99.90
1083;DHT22;530;51.448;7.238;2023-02-15T04:05:19;5.90;99.90
1083;DHT22;530;51.448;7.238;2023-02-15T04:07:44;6.00;99.90
1083;DHT22;530;51.448;7.238;2023-02-15T04:10:10;5.90;99.90
1083;DHT22;530;51.448;7.238;2023-02-15T04:12:54;5.80;99.90
1083;DHT22;530;51.448;7.238;2023-02-15T04:15:21;5.90;99.90
1083;DHT22;530;51.448;7.238;2023-02-15T04:18:05;5.70;99.90
1083;DHT22;530;51.448;7.238;2023-02-15T04:20:31;5.60;99.90
1083;DHT22;530;51.448;7.238;2023-02-15T04:23:15;5.60;99.90
1083;DHT22;530;51.448;7.238;2023-02-15T04:26:03;5.90;99.90
1083;DHT22;530;51.448;7.238;2023-02-15T04:28:29;5.80;99.90
1083;DHT22;530;51.448;7.238;2023-02-15T04:30:54;5.80;99.90
1083;DHT22;530;51.448;7.238;2023-02-15T04:33:20;5.80;99.90
1083;DHT22;530;51.448;7.238;2023-02-15T04:35:46;5.80;99.90
1083;DHT22;530;51.448;7.238;2023-02-15T04:38:12;5.80;99.90
1083;DHT22;530;51.448;7.238;2023-02-15T04:40:37;5.70;99.90
1083;DHT22;530;51.448;7.238;2023-02-15T04:43:03;5.90;99.90
1083;DHT22;530;51.448;7.238;2023-02-15T04:45:29;5.70;99.90
1083;DHT22;530;51.448;7.238;2023-02-15T04:47:54;5.80;99.90
1083;DHT22;530;51.448;7.238;2023-02-15T04:50:20;5.80;99.90
1083;DHT22;530;51.448;7.238;2023-02-15T04:52:46;5.70;99.90
1083;DHT22;530;51.448;7.238;2023-02-15T04:55:12;5.70;99.90
1083;DHT22;530;51.448;7.238;2023-02-15T04:57:38;5.70;99.90
1083;DHT22;530;51.448;7.238;2023-02-15T05:00:04;5.70;99.90
1083;DHT22;530;51.448;7.238;2023-02-15T05:02:29;5.90;99.90
1083;DHT22;530;51.448;7.238;2023-02-15T05:04:55;5.60;99.90
1083;DHT22;530;51.448;7.238;2023-02-15T05:07:21;5.50;99.90
1083;DHT22;530;51.448;7.238;2023-02-15T05:09:46;5.50;99.90
1083;DHT22;530;51.448;7.238;2023-02-15T05:12:12;5.50;99.90
1083;DHT22;530;51.448;7.238;2023-02-15T05:14:38;5.60;99.90
1083;DHT22;530;51.448;7.238;2023-02-15T05:17:03;5.50;99.90
1083;DHT22;530;51.448;7.238;2023-02-15T05:19:30;5.50;99.90
1083;DHT22;530;51.448;7.238;2023-02-15T05:21:56;5.70;99.90
1083;DHT22;530;51.448;7.238;2023-02-15T05:24:22;5.70;99.90
1083;DHT22;530;51.448;7.238;2023-02-15T05:27:07;5.60;99.90
1083;DHT22;530;51.448;7.238;2023-02-15T05:29:51;5.60;99.90
1083;DHT22;530;51.448;7.238;2023-02-15T05:32:17;5.40;99.90
1083;DHT22;530;51.448;7.238;2023-02-15T05:34:43;5.50;99.90
1083;DHT22;530;51.448;7.238;2023-02-15T05:37:08;5.60;99.90
1083;DHT22;530;51.448;7.238;2023-02-15T05:39:34;5.50;99.90
1083;DHT22;530;51.448;7.238;2023-02-15T05:42:00;5.50;99.90
1083;DHT22;530;51.448;7.238;2023-02-15T05:44:26;5.60;99.90
1083;DHT22;530;51.448;7.238;2023-02-15T05:46:51;5.50;99.90
1083;DHT22;530;51.448;7.238;2023-02-15T05:49:17;5.70;99.90
1083;DHT22;530;51.448;7.238;2023-02-15T05:51:43;5.50;99.90
1083;DHT22;530;51.448;7.238;2023-02-15T05:54:08;5.70;99.90
1083;DHT22;530;51.448;7.238;2023-02-15T05:56:34;5.50;99.90
1083;DHT22;530;51.448;7.238;2023-02-15T05:58:59;5.60;99.90
1083;DHT22;530;51.448;7.238;2023-02-15T06:01:25;5.40;99.90
1083;DHT22;530;51.448;7.238;2023-02-15T06:03:51;5.50;99.90
1083;DHT22;530;51.448;7.238;2023-02-15T06:06:17;5.30;99.90
1083;DHT22;530;51.448;7.238;2023-02-15T06:08:43;5.40;99.90
1083;DHT22;530;51.448;7.238;2023-02-15T06:11:09;5.40;99.90
1083;DHT22;530;51.448;7.238;2023-02-15T06:13:35;5.50;99.90
1083;DHT22;530;51.448;7.238;2023-02-15T06:16:01;5.40;99.90
1083;DHT22;530;51.448;7.238;2023-02-15T06:18:26;5.60;99.90
1083;DHT22;530;51.448;7.238;2023-02-15T06:20:53;5.50;99.90
1083;DHT22;530;51.448;7.238;2023-02-15T06:23:18;5.70;99.90
1083;DHT22;530;51.448;7.238;2023-02-15T06:25:45;5.40;99.90
1083;DHT22;530;51.448;7.238;2023-02-15T06:28:11;5.50;99.90
1083;DHT22;530;51.448;7.238;2023-02-15T06:30:37;5.60;99.90
1083;DHT22;530;51.448;7.238;2023-02-15T06:33:02;5.50;99.90
1083;DHT22;530;51.448;7.238;2023-02-15T06:35:28;5.40;99.90
1083;DHT22;530;51.448;7.238;2023-02-15T06:37:54;5.50;99.90
1083;DHT22;530;51.448;7.238;2023-02-15T06:40:19;5.50;99.90
1083;DHT22;530;51.448;7.238;2023-02-15T06:42:45;5.30;99.90
1083;DHT22;530;51.448;7.238;2023-02-15T06:45:11;5.40;99.90
1083;DHT22;530;51.448;7.238;2023-02-15T06:47:37;5.40;99.90
1083;DHT22;530;51.448;7.238;2023-02-15T06:50:05;5.70;99.90
1083;DHT22;530;51.448;7.238;2023-02-15T06:52:31;5.50;99.90
1083;DHT22;530;51.448;7.238;2023-02-15T06:54:56;5.50;99.90
1083;DHT22;530;51.448;7.238;2023-02-15T06:57:22;5.60;99.90
1083;DHT22;530;51.448;7.238;2023-02-15T06:59:48;5.50;99.90
1083;DHT22;530;51.448;7.238;2023-02-15T07:02:14;5.60;99.90
1083;DHT22;530;51.448;7.238;2023-02-15T07:04:40;5.60;99.90
1083;DHT22;530;51.448;7.238;2023-02-15T07:07:08;5.40;99.90
1083;DHT22;530;51.448;7.238;2023-02-15T07:09:34;5.70;99.90
1083;DHT22;530;51.448;7.238;2023-02-15T07:12:00;5.40;99.90
1083;DHT22;530;51.448;7.238;2023-02-15T07:14:44;5.60;99.90
1083;DHT22;530;51.448;7.238;2023-02-15T07:17:10;5.60;99.90
1083;DHT22;530;51.448;7.238;2023-02-15T07:19:36;5.70;99.90
1083;DHT22;530;51.448;7.238;2023-02-15T07:22:01;5.60;99.90
1083;DHT22;530;51.448;7.238;2023-02-15T07:24:29;5.50;99.90
1083;DHT22;530;51.448;7.238;2023-02-15T07:26:54;5.70;99.90
1083;DHT22;530;51.448;7.238;2023-02-15T07:29:20;5.50;99.90
1083;DHT22;530;51.448;7.238;2023-02-15T07:31:45;5.60;99.90
1083;DHT22;530;51.448;7.238;2023-02-15T07:34:12;5.70;99.90
1083;DHT22;530;51.448;7.238;2023-02-15T07:36:37;5.70;99.90
1083;DHT22;530;51.448;7.238;2023-02-15T07:39:03;5.90;99.90
1083;DHT22;530;51.448;7.238;2023-02-15T07:41:29;5.80;99.90
1083;DHT22;530;51.448;7.238;2023-02-15T07:43:54;6.10;99.90
1083;DHT22;530;51.448;7.238;2023-02-15T07:46:20;6.00;99.90
1083;DHT22;530;51.448;7.238;2023-02-15T07:48:47;6.10;99.90
1083;DHT22;530;51.448;7.238;2023-02-15T07:51:13;5.90;99.90
1083;DHT22;530;51.448;7.238;2023-02-15T07:53:40;6.40;99.90
1083;DHT22;530;51.448;7.238;2023-02-15T07:56:13;6.40;99.90
1083;DHT22;530;51.448;7.238;2023-02-15T07:58:39;6.60;99.90
1083;DHT22;530;51.448;7.238;2023-02-15T08:01:36;6.50;99.90
1083;DHT22;530;51.448;7.238;2023-02-15T08:04:03;6.80;99.90
1083;DHT22;530;51.448;7.238;2023-02-15T08:06:32;7.00;99.90
1083;DHT22;530;51.448;7.238;2023-02-15T08:08:58;7.00;99.90
1083;DHT22;530;51.448;7.238;2023-02-15T08:11:25;7.00;99.90
1083;DHT22;530;51.448;7.238;2023-02-15T08:13:53;7.40;99.90
1083;DHT22;530;51.448;7.238;2023-02-15T08:19:32;7.60;99.90
1083;DHT22;530;51.448;7.238;2023-02-15T08:21:59;7.70;99.90
1083;DHT22;530;51.448;7.238;2023-02-15T08:24:29;8.00;99.90
1083;DHT22;530;51.448;7.238;2023-02-15T08:26:55;8.20;99.90
1083;DHT22;530;51.448;7.238;2023-02-15T08:29:27;8.40;99.90
1083;DHT22;530;51.448;7.238;2023-02-15T08:31:58;8.60;99.90
1083;DHT22;530;51.448;7.238;2023-02-15T08:34:27;9.40;99.90
1083;DHT22;530;51.448;7.238;2023-02-15T08:36:54;10.10;99.90
1083;DHT22;530;51.448;7.238;2023-02-15T08:39:20;10.00;99.90
1083;DHT22;530;51.448;7.238;2023-02-15T08:41:50;10.10;99.90
1083;DHT22;530;51.448;7.238;2023-02-15T08:44:17;10.10;99.90
1083;DHT22;530;51.448;7.238;2023-02-15T08:46:45;10.00;99.90
1083;DHT22;530;51.448;7.238;2023-02-15T08:49:20;9.90;99.90
1083;DHT22;530;51.448;7.238;2023-02-15T08:51:47;10.00;99.90
1083;DHT22;530;51.448;7.238;2023-02-15T08:54:15;10.20;99.90
1083;DHT22;530;51.448;7.238;2023-02-15T08:56:43;10.30;99.90
1083;DHT22;530;51.448;7.238;2023-02-15T08:59:27;10.40;99.90
1083;DHT22;530;51.448;7.238;2023-02-15T09:01:53;10.60;99.90
1083;DHT22;530;51.448;7.238;2023-02-15T09:04:20;10.80;99.90
1083;DHT22;530;51.448;7.238;2023-02-15T09:06:48;10.90;99.90
1083;DHT22;530;51.448;7.238;2023-02-15T09:09:14;11.10;99.90
1083;DHT22;530;51.448;7.238;2023-02-15T09:11:42;11.20;99.90
1083;DHT22;530;51.448;7.238;2023-02-15T09:14:12;11.40;99.90
1083;DHT22;530;51.448;7.238;2023-02-15T09:16:42;11.50;99.50
1083;DHT22;530;51.448;7.238;2023-02-15T09:19:11;11.60;99.60
1083;DHT22;530;51.448;7.238;2023-02-15T09:21:38;11.70;99.10
1083;DHT22;530;51.448;7.238;2023-02-15T09:24:06;11.80;99.10
1083;DHT22;530;51.448;7.238;2023-02-15T09:26:36;11.90;99.10
1083;DHT22;530;51.448;7.238;2023-02-15T09:29:03;11.90;98.10
1083;DHT22;530;51.448;7.238;2023-02-15T09:31:31;11.90;97.80
1083;DHT22;530;51.448;7.238;2023-02-15T09:33:58;11.90;98.70
1083;DHT22;530;51.448;7.238;2023-02-15T09:36:35;12.00;98.20
1083;DHT22;530;51.448;7.238;2023-02-15T09:45:22;12.40;96.70
1083;DHT22;530;51.448;7.238;2023-02-15T09:56:14;13.00;97.70
1083;DHT22;530;51.448;7.238;2023-02-15T10:12:52;13.90;95.70
1083;DHT22;530;51.448;7.238;2023-02-15T10:15:23;14.10;94.80
1083;DHT22;530;51.448;7.238;2023-02-15T10:26:22;14.60;95.80
1083;DHT22;530;51.448;7.238;2023-02-15T10:28:51;14.80;95.10
1083;DHT22;530;51.448;7.238;2023-02-15T10:31:26;15.00;93.90
1083;DHT22;530;51.448;7.238;2023-02-15T10:37:05;15.30;94.50
1083;DHT22;530;51.448;7.238;2023-02-15T10:48:15;15.90;92.70
1083;DHT22;530;51.448;7.238;2023-02-15T10:50:46;15.80;92.80
1083;DHT22;530;51.448;7.238;2023-02-15T11:07:40;15.10;92.80
1083;DHT22;530;51.448;7.238;2023-02-15T11:12:50;14.90;92.40
1083;DHT22;530;51.448;7.238;2023-02-15T11:15:40;14.80;92.50
1083;DHT22;530;51.448;7.238;2023-02-15T11:18:23;14.70;93.50
1083;DHT22;530;51.448;7.238;2023-02-15T11:23:37;14.60;93.40
1083;DHT22;530;51.448;7.238;2023-02-15T11:26:13;14.60;92.90
1083;DHT22;530;51.448;7.238;2023-02-15T11:28:48;14.60;92.80
1083;DHT22;530;51.448;7.238;2023-02-15T11:31:24;14.60;93.60
1083;DHT22;530;51.448;7.238;2023-02-15T11:34:13;14.60;92.10
1083;DHT22;530;51.448;7.238;2023-02-15T11:36:43;14.50;92.30
1083;DHT22;530;51.448;7.238;2023-02-15T11:39:12;14.50;92.60
1083;DHT22;530;51.448;7.238;2023-02-15T11:41:43;14.40;92.30
1083;DHT22;530;51.448;7.238;2023-02-15T11:44:21;14.40;92.10
1083;DHT22;530;51.448;7.238;2023-02-15T11:46:49;14.40;93.00
1083;DHT22;530;51.448;7.238;2023-02-15T11:49:31;14.40;92.80
1083;DHT22;530;51.448;7.238;2023-02-15T11:51:58;14.50;92.80
1083;DHT22;530;51.448;7.238;2023-02-15T11:54:30;14.60;92.60
1083;DHT22;530;51.448;7.238;2023-02-15T11:57:01;14.70;91.90
1083;DHT22;530;51.448;7.238;2023-02-15T11:59:34;14.90;92.30
1083;DHT22;530;51.448;7.238;2023-02-15T12:02:02;15.00;92.00
1083;DHT22;530;51.448;7.238;2023-02-15T12:04:38;15.10;91.40
1083;DHT22;530;51.448;7.238;2023-02-15T12:10:05;15.30;91.00
1083;DHT22;530;51.448;7.238;2023-02-15T12:12:37;15.40;90.50
1083;DHT22;530;51.448;7.238;2023-02-15T12:15:08;15.40;89.90
1083;DHT22;530;51.448;7.238;2023-02-15T12:17:52;15.50;90.00
1083;DHT22;530;51.448;7.238;2023-02-15T12:23:13;15.60;89.00
1083;DHT22;530;51.448;7.238;2023-02-15T12:25:49;15.70;88.70
1083;DHT22;530;51.448;7.238;2023-02-15T12:28:38;15.70;88.20
1083;DHT22;530;51.448;7.238;2023-02-15T12:31:26;15.70;86.30
1083;DHT22;530;51.448;7.238;2023-02-15T12:33:55;15.80;87.00
1083;DHT22;530;51.448;7.238;2023-02-15T12:36:26;15.90;88.60
1083;DHT22;530;51.448;7.238;2023-02-15T12:47:16;15.90;86.50
1083;DHT22;530;51.448;7.238;2023-02-15T12:49:44;15.90;86.00
1083;DHT22;530;51.448;7.238;2023-02-15T12:54:46;15.90;84.00
1083;DHT22;530;51.448;7.238;2023-02-15T12:57:30;15.90;82.70
1083;DHT22;530;51.448;7.238;2023-02-15T13:02:48;15.90;83.60
1083;DHT22;530;51.448;7.238;2023-02-15T13:13:27;15.90;84.00
1083;DHT22;530;51.448;7.238;2023-02-15T13:15:59;15.90;83.60
1083;DHT22;530;51.448;7.238;2023-02-15T13:18:37;15.80;82.10
1083;DHT22;530;51.448;7.238;2023-02-15T13:21:21;15.70;82.00
1083;DHT22;530;51.448;7.238;2023-02-15T13:23:53;15.80;82.20
1083;DHT22;530;51.448;7.238;2023-02-15T13:26:25;15.80;82.50
1083;DHT22;530;51.448;7.238;2023-02-15T13:28:55;15.70;81.40
1083;DHT22;530;51.448;7.238;2023-02-15T13:31:23;15.70;82.20
1083;DHT22;530;51.448;7.238;2023-02-15T13:34:12;15.70;84.10
1083;DHT22;530;51.448;7.238;2023-02-15T13:45:07;15.60;79.80
1083;DHT22;530;51.448;7.238;2023-02-15T13:59:28;15.40;79.90
1083;DHT22;530;51.448;7.238;2023-02-15T14:15:38;15.20;81.80
1083;DHT22;530;51.448;7.238;2023-02-15T14:18:25;15.20;80.50
1083;DHT22;530;51.448;7.238;2023-02-15T14:21:10;15.20;83.40
1083;DHT22;530;51.448;7.238;2023-02-15T14:23:57;15.10;81.80
1083;DHT22;530;51.448;7.238;2023-02-15T14:29:34;15.00;81.10
1083;DHT22;530;51.448;7.238;2023-02-15T14:32:10;15.00;82.30
1083;DHT22;530;51.448;7.238;2023-02-15T14:34:53;15.00;81.20
1083;DHT22;530;51.448;7.238;2023-02-15T14:40:06;14.90;80.90
1083;DHT22;530;51.448;7.238;2023-02-15T14:43:01;14.90;82.30
1083;DHT22;530;51.448;7.238;2023-02-15T14:45:38;14.80;84.30
1083;DHT22;530;51.448;7.238;2023-02-15T14:50:46;14.80;84.40
1083;DHT22;530;51.448;7.238;2023-02-15T14:53:38;14.70;84.00
1083;DHT22;530;51.448;7.238;2023-02-15T14:58:55;14.60;83.40
1083;DHT22;530;51.448;7.238;2023-02-15T15:01:32;14.60;83.90
1083;DHT22;530;51.448;7.238;2023-02-15T15:04:02;14.50;85.00
1083;DHT22;530;51.448;7.238;2023-02-15T15:06:32;14.50;85.20
1083;DHT22;530;51.448;7.238;2023-02-15T15:11:41;14.40;85.30
1083;DHT22;530;51.448;7.238;2023-02-15T15:14:08;14.30;84.20
1083;DHT22;530;51.448;7.238;2023-02-15T15:19:12;14.30;85.10
1083;DHT22;530;51.448;7.238;2023-02-15T15:27:38;14.10;90.30
1083;DHT22;530;51.448;7.238;2023-02-15T15:32:57;14.00;90.70
1083;DHT22;530;51.448;7.238;2023-02-15T15:35:40;13.90;92.40
1083;DHT22;530;51.448;7.238;2023-02-15T15:43:57;13.70;94.50
1083;DHT22;530;51.448;7.238;2023-02-15T15:47:00;13.60;95.00
1083;DHT22;530;51.448;7.238;2023-02-15T15:49:32;13.50;95.10
1083;DHT22;530;51.448;7.238;2023-02-15T15:52:20;13.40;95.10
1083;DHT22;530;51.448;7.238;2023-02-15T15:54:49;13.40;96.10
1083;DHT22;530;51.448;7.238;2023-02-15T15:57:39;13.30;96.30
1083;DHT22;530;51.448;7.238;2023-02-15T16:00:36;13.30;96.70
1083;DHT22;530;51.448;7.238;2023-02-15T16:03:04;13.20;96.60
1083;DHT22;530;51.448;7.238;2023-02-15T16:05:37;13.20;97.00
1083;DHT22;530;51.448;7.238;2023-02-15T16:08:03;13.10;96.70
1083;DHT22;530;51.448;7.238;2023-02-15T16:10:30;13.00;96.80
1083;DHT22;530;51.448;7.238;2023-02-15T16:13:00;12.90;96.90
1083;DHT22;530;51.448;7.238;2023-02-15T16:15:47;12.80;97.30
1083;DHT22;530;51.448;7.238;2023-02-15T16:18:20;12.80;97.50
1083;DHT22;530;51.448;7.238;2023-02-15T16:20:58;12.70;97.90
1083;DHT22;530;51.448;7.238;2023-02-15T16:28:56;12.60;96.20
1083;DHT22;530;51.448;7.238;2023-02-15T16:31:23;12.60;95.80
1083;DHT22;530;51.448;7.238;2023-02-15T16:33:53;12.60;95.10
1083;DHT22;530;51.448;7.238;2023-02-15T16:36:27;12.60;95.00
1083;DHT22;530;51.448;7.238;2023-02-15T16:41:26;12.40;96.60
1083;DHT22;530;51.448;7.238;2023-02-15T16:43:54;12.30;96.90
1083;DHT22;530;51.448;7.238;2023-02-15T16:46:30;12.30;97.50
1083;DHT22;530;51.448;7.238;2023-02-15T16:49:02;12.10;97.80
1083;DHT22;530;51.448;7.238;2023-02-15T16:51:31;12.00;98.50
1083;DHT22;530;51.448;7.238;2023-02-15T16:54:05;12.00;98.70
1083;DHT22;530;51.448;7.238;2023-02-15T16:56:33;11.90;98.80
1083;DHT22;530;51.448;7.238;2023-02-15T16:58:59;11.80;99.30
1083;DHT22;530;51.448;7.238;2023-02-15T17:01:30;11.70;99.70
1083;DHT22;530;51.448;7.238;2023-02-15T17:07:03;11.90;98.40
1083;DHT22;530;51.448;7.238;2023-02-15T17:09:30;11.90;98.20
1083;DHT22;530;51.448;7.238;2023-02-15T17:11:55;11.90;98.10
1083;DHT22;530;51.448;7.238;2023-02-15T17:14:37;11.90;98.10
1083;DHT22;530;51.448;7.238;2023-02-15T17:17:06;11.90;98.10
1083;DHT22;530;51.448;7.238;2023-02-15T17:19:59;12.00;98.00
1083;DHT22;530;51.448;7.238;2023-02-15T17:22:26;11.90;97.90
1083;DHT22;530;51.448;7.238;2023-02-15T17:25:00;11.90;98.00
1083;DHT22;530;51.448;7.238;2023-02-15T17:27:28;11.80;98.10
1083;DHT22;530;51.448;7.238;2023-02-15T17:30:00;11.80;98.40
1083;DHT22;530;51.448;7.238;2023-02-15T17:32:32;11.80;98.60
1083;DHT22;530;51.448;7.238;2023-02-15T17:35:06;11.70;98.90
1083;DHT22;530;51.448;7.238;2023-02-15T17:40:28;11.60;98.60
1083;DHT22;530;51.448;7.238;2023-02-15T17:42:54;11.60;98.60
1083;DHT22;530;51.448;7.238;2023-02-15T17:45:21;11.70;98.60
1083;DHT22;530;51.448;7.238;2023-02-15T17:47:49;11.60;98.60
1083;DHT22;530;51.448;7.238;2023-02-15T17:50:21;11.60;98.70
1083;DHT22;530;51.448;7.238;2023-02-15T17:52:49;11.50;98.80
1083;DHT22;530;51.448;7.238;2023-02-15T17:55:18;11.40;98.80
1083;DHT22;530;51.448;7.238;2023-02-15T17:58:06;11.40;98.90
1083;DHT22;530;51.448;7.238;2023-02-15T18:00:36;11.30;98.90
1083;DHT22;530;51.448;7.238;2023-02-15T18:03:21;11.40;99.20
1083;DHT22;530;51.448;7.238;2023-02-15T18:06:07;11.30;99.40
1083;DHT22;530;51.448;7.238;2023-02-15T18:08:51;11.20;99.90
1083;DHT22;530;51.448;7.238;2023-02-15T18:11:36;11.20;99.90
1083;DHT22;530;51.448;7.238;2023-02-15T18:14:06;11.10;99.90
1083;DHT22;530;51.448;7.238;2023-02-15T18:16:37;11.10;99.70
1083;DHT22;530;51.448;7.238;2023-02-15T18:19:05;11.20;99.50
1083;DHT22;530;51.448;7.238;2023-02-15T18:21:34;11.20;99.50
1083;DHT22;530;51.448;7.238;2023-02-15T18:24:00;11.20;99.60
1083;DHT22;530;51.448;7.238;2023-02-15T18:26:26;11.20;99.50
1083;DHT22;530;51.448;7.238;2023-02-15T18:28:52;11.10;99.40
1083;DHT22;530;51.448;7.238;2023-02-15T18:31:19;11.20;99.50
1083;DHT22;530;51.448;7.238;2023-02-15T18:33:57;11.20;99.40
1083;DHT22;530;51.448;7.238;2023-02-15T18:36:27;11.20;99.30
1083;DHT22;530;51.448;7.238;2023-02-15T18:38:54;11.20;99.80
1083;DHT22;530;51.448;7.238;2023-02-15T18:41:23;11.10;99.50
1083;DHT22;530;51.448;7.238;2023-02-15T18:43:50;11.00;99.70
1083;DHT22;530;51.448;7.238;2023-02-15T18:46:17;11.00;99.80
1083;DHT22;530;51.448;7.238;2023-02-15T18:48:43;11.00;99.90
1083;DHT22;530;51.448;7.238;2023-02-15T18:51:18;10.90;99.90
1083;DHT22;530;51.448;7.238;2023-02-15T18:53:46;10.90;99.90
1083;DHT22;530;51.448;7.238;2023-02-15T18:56:17;10.90;99.90
1083;DHT22;530;51.448;7.238;2023-02-15T18:58:44;10.90;99.90
1083;DHT22;530;51.448;7.238;2023-02-15T19:01:17;10.90;99.90
1083;DHT22;530;51.448;7.238;2023-02-15T19:03:48;10.80;99.90
1083;DHT22;530;51.448;7.238;2023-02-15T19:06:17;10.70;99.90
1083;DHT22;530;51.448;7.238;2023-02-15T19:08:44;10.70;99.90
1083;DHT22;530;51.448;7.238;2023-02-15T19:11:19;10.60;99.90
1083;DHT22;530;51.448;7.238;2023-02-15T19:13:47;10.60;99.90
1083;DHT22;530;51.448;7.238;2023-02-15T19:16:35;10.60;99.90
1083;DHT22;530;51.448;7.238;2023-02-15T19:19:01;10.50;99.90
1083;DHT22;530;51.448;7.238;2023-02-15T19:21:30;10.40;99.90
1083;DHT22;530;51.448;7.238;2023-02-15T19:24:02;10.30;99.90
1083;DHT22;530;51.448;7.238;2023-02-15T19:26:30;10.30;99.90
1083;DHT22;530;51.448;7.238;2023-02-15T19:29:00;10.30;99.90
1083;DHT22;530;51.448;7.238;2023-02-15T19:31:27;10.40;99.90
1083;DHT22;530;51.448;7.238;2023-02-15T19:33:53;10.20;99.90
1083;DHT22;530;51.448;7.238;2023-02-15T19:36:18;10.20;99.90
1083;DHT22;530;51.448;7.238;2023-02-15T19:38:49;10.10;99.90
1083;DHT22;530;51.448;7.238;2023-02-15T19:41:26;10.10;99.90
1083;DHT22;530;51.448;7.238;2023-02-15T19:43:54;10.00;99.90
1083;DHT22;530;51.448;7.238;2023-02-15T19:46:21;10.00;99.90
1083;DHT22;530;51.448;7.238;2023-02-15T19:48:48;9.90;99.90
1083;DHT22;530;51.448;7.238;2023-02-15T19:51:14;10.00;99.90
1083;DHT22;530;51.448;7.238;2023-02-15T19:53:40;9.90;99.90
1083;DHT22;530;51.448;7.238;2023-02-15T19:56:17;9.90;99.90
1083;DHT22;530;51.448;7.238;2023-02-15T19:58:45;9.70;99.90
1083;DHT22;530;51.448;7.238;2023-02-15T20:01:11;9.70;99.90
1083;DHT22;530;51.448;7.238;2023-02-15T20:03:36;9.70;99.90
1083;DHT22;530;51.448;7.238;2023-02-15T20:06:02;9.60;99.90
1083;DHT22;530;51.448;7.238;2023-02-15T20:08:29;9.50;99.90
1083;DHT22;530;51.448;7.238;2023-02-15T20:10:56;9.50;99.90
1083;DHT22;530;51.448;7.238;2023-02-15T20:13:23;9.50;99.90
1083;DHT22;530;51.448;7.238;2023-02-15T20:15:49;9.50;99.90
1083;DHT22;530;51.448;7.238;2023-02-15T20:18:15;9.50;99.90
1083;DHT22;530;51.448;7.238;2023-02-15T20:20:47;9.50;99.90
1083;DHT22;530;51.448;7.238;2023-02-15T20:23:34;9.50;99.90
1083;DHT22;530;51.448;7.238;2023-02-15T20:26:09;9.50;99.90